createdAt,value
2022-12-13T00:01:28.898Z,20.13
2022-12-13T00:03:57.779Z,20.40
2022-12-13T00:06:25.282Z,19.75
2022-12-13T00:08:52.812Z,20.08
2022-12-13T00:11:19.833Z,20.48
2022-12-13T00:13:48.093Z,19.33
2022-12-13T00:16:22.717Z,17.60
2022-12-13T00:18:52.659Z,19.55
2022-12-13T00:21:22.439Z,16.35
2022-12-13T00:23:49.812Z,17.27
2022-12-13T00:26:22.727Z,16.40
2022-12-13T00:28:51.307Z,16.23
2022-12-13T00:31:53.337Z,16.20
2022-12-13T00:34:06.350Z,16.65
2022-12-13T00:36:33.459Z,15.45
2022-12-13T00:39:01.025Z,15.98
2022-12-13T00:41:30.542Z,15.63
2022-12-13T00:43:58.974Z,14.63
2022-12-13T00:46:26.922Z,15.77
2022-12-13T00:48:56.074Z,15.68
2022-12-13T00:51:24.050Z,14.75
2022-12-13T00:53:51.369Z,15.10
2022-12-13T00:56:21.945Z,13.77
2022-12-13T00:58:52.158Z,15.55
2022-12-13T01:01:22.384Z,15.75
2022-12-13T01:03:49.691Z,15.55
2022-12-13T01:06:23.038Z,15.35
2022-12-13T01:08:49.917Z,16.20
2022-12-13T01:11:17.150Z,16.83
2022-12-13T01:13:44.659Z,17.23
2022-12-13T01:16:13.133Z,16.90
2022-12-13T01:18:40.653Z,17.33
2022-12-13T01:21:15.180Z,16.00
2022-12-13T01:23:42.622Z,16.73
2022-12-13T01:26:12.823Z,15.43
2022-12-13T01:28:40.122Z,16.25
2022-12-13T01:31:10.262Z,15.45
2022-12-13T01:33:37.758Z,15.85
2022-12-13T01:36:07.167Z,16.50
2022-12-13T01:38:37.680Z,16.23
2022-12-13T01:41:17.082Z,17.70
2022-12-13T01:43:48.157Z,17.35
2022-12-13T01:46:17.308Z,16.40
2022-12-13T01:48:51.494Z,18.50
2022-12-13T01:51:21.453Z,16.95
2022-12-13T01:53:50.619Z,15.85
2022-12-13T01:56:26.744Z,17.38
2022-12-13T01:58:55.862Z,15.65
2022-12-13T02:01:24.790Z,16.83
2022-12-13T02:03:51.672Z,17.17
2022-12-13T02:06:38.851Z,16.77
2022-12-13T02:09:07.714Z,16.77
2022-12-13T02:11:38.230Z,17.83
2022-12-13T02:14:05.601Z,16.40
2022-12-13T02:16:50.329Z,18.20
2022-12-13T02:19:32.365Z,16.92
2022-12-13T02:22:19.693Z,16.75
2022-12-13T02:25:04.311Z,17.35
2022-12-13T02:27:49.159Z,15.95
2022-12-13T02:30:24.672Z,15.95
2022-12-13T02:32:54.469Z,16.30
2022-12-13T02:38:56.257Z,16.25
2022-12-13T02:41:36.524Z,16.40
2022-12-13T02:44:30.739Z,16.13
2022-12-13T02:47:12.555Z,14.95
2022-12-13T02:49:43.969Z,15.18
2022-12-13T02:52:13.566Z,15.38
2022-12-13T02:54:49.544Z,15.23
2022-12-13T02:57:38.684Z,14.73
2022-12-13T03:00:08.117Z,15.70
2022-12-13T03:03:01.545Z,15.77
2022-12-13T03:06:13.101Z,14.77
2022-12-13T03:08:51.494Z,16.00
2022-12-13T03:11:20.044Z,15.52
2022-12-13T03:14:00.350Z,16.17
2022-12-13T03:16:43.105Z,15.20
2022-12-13T03:19:12.211Z,16.30
2022-12-13T03:21:48.212Z,16.10
2022-12-13T03:24:20.552Z,17.35
2022-12-13T03:26:49.307Z,16.67
2022-12-13T03:29:23.395Z,17.13
2022-12-13T03:31:51.752Z,17.90
2022-12-13T03:34:22.419Z,18.75
2022-12-13T03:36:50.805Z,18.70
2022-12-13T03:39:18.428Z,16.13
2022-12-13T03:41:45.291Z,17.52
2022-12-13T03:44:12.152Z,16.85
2022-12-13T03:46:39.086Z,17.30
2022-12-13T03:49:06.070Z,18.63
2022-12-13T03:51:32.884Z,18.20
2022-12-13T03:53:59.757Z,18.88
2022-12-13T03:56:26.519Z,18.10
2022-12-13T03:58:53.923Z,17.35
2022-12-13T04:01:22.162Z,15.98
2022-12-13T04:03:49.195Z,17.63
2022-12-13T04:06:22.116Z,17.33
2022-12-13T04:08:51.420Z,16.40
2022-12-13T04:11:42.805Z,15.50
2022-12-13T04:14:10.807Z,16.50
2022-12-13T04:16:37.761Z,17.20
2022-12-13T04:19:04.733Z,16.88
2022-12-13T04:21:31.532Z,17.65
2022-12-13T04:24:00.947Z,16.00
2022-12-13T04:26:28.656Z,17.38
2022-12-13T04:28:55.715Z,18.08
2022-12-13T04:31:23.350Z,16.60
2022-12-13T04:33:50.595Z,16.55
2022-12-13T04:36:31.910Z,15.25
2022-12-13T04:39:01.560Z,16.83
2022-12-13T04:41:33.928Z,16.73
2022-12-13T04:44:02.060Z,16.52
2022-12-13T04:46:29.211Z,17.75
2022-12-13T04:48:57.239Z,17.27
2022-12-13T04:51:24.193Z,17.27
2022-12-13T04:53:51.302Z,17.90
2022-12-13T04:56:19.873Z,17.45
2022-12-13T04:58:46.835Z,16.45
2022-12-13T05:01:13.866Z,18.33
2022-12-13T05:03:40.803Z,17.90
2022-12-13T05:06:26.783Z,17.98
2022-12-13T05:08:54.629Z,16.25
2022-12-13T05:11:27.288Z,18.10
2022-12-13T05:14:02.868Z,19.02
2022-12-13T05:16:30.318Z,17.65
2022-12-13T05:18:57.178Z,17.63
2022-12-13T05:21:24.210Z,16.90
2022-12-13T05:23:50.989Z,15.13
2022-12-13T05:26:17.830Z,16.02
2022-12-13T05:28:44.855Z,15.90
2022-12-13T05:31:23.353Z,15.88
2022-12-13T05:33:52.110Z,15.35
2022-12-13T05:36:19.431Z,15.82
2022-12-13T05:38:46.498Z,16.02
2022-12-13T05:41:19.594Z,16.23
2022-12-13T05:43:46.382Z,15.13
2022-12-13T05:46:13.934Z,15.93
2022-12-13T05:48:41.284Z,15.90
2022-12-13T05:51:11.795Z,16.00
2022-12-13T05:53:42.717Z,17.63
2022-12-13T05:56:11.153Z,16.08
2022-12-13T05:58:39.378Z,17.15
2022-12-13T06:01:12.222Z,15.57
2022-12-13T06:03:40.004Z,17.67
2022-12-13T06:06:10.591Z,17.85
2022-12-13T06:08:37.655Z,17.00
2022-12-13T06:11:10.050Z,18.20
2022-12-13T06:13:43.537Z,16.60
2022-12-13T06:16:22.987Z,17.95
2022-12-13T06:19:01.009Z,17.05
2022-12-13T06:21:41.750Z,16.95
2022-12-13T06:24:17.943Z,18.42
2022-12-13T06:26:45.973Z,16.55
2022-12-13T06:29:23.673Z,18.67
2022-12-13T06:31:53.908Z,18.50
2022-12-13T06:34:20.806Z,17.40
2022-12-13T06:36:47.893Z,18.25
2022-12-13T06:39:15.819Z,17.30
2022-12-13T06:41:42.805Z,17.35
2022-12-13T06:44:09.590Z,18.30
2022-12-13T06:46:36.423Z,16.33
2022-12-13T06:49:07.802Z,18.67
2022-12-13T06:51:35.108Z,17.73
2022-12-13T06:54:02.683Z,18.60
2022-12-13T06:56:30.395Z,18.05
2022-12-13T06:59:01.379Z,18.05
2022-12-13T07:01:37.712Z,18.67
2022-12-13T07:04:30.288Z,17.92
2022-12-13T07:06:53.367Z,16.58
2022-12-13T07:09:20.324Z,18.15
2022-12-13T07:11:51.972Z,18.30
2022-12-13T07:14:20.223Z,18.35
2022-12-13T07:16:47.180Z,17.10
2022-12-13T07:19:14.049Z,18.17
2022-12-13T07:21:51.512Z,16.83
2022-12-13T07:24:18.655Z,16.42
2022-12-13T07:26:45.456Z,16.83
2022-12-13T07:29:12.230Z,17.60
2022-12-13T07:31:39.102Z,17.77
2022-12-13T07:34:05.980Z,18.55
2022-12-13T07:36:32.732Z,18.48
2022-12-13T07:38:59.685Z,17.55
2022-12-13T07:41:27.346Z,17.95
2022-12-13T07:43:56.148Z,18.92
2022-12-13T07:46:32.333Z,15.98
2022-12-13T07:49:02.910Z,17.27
2022-12-13T07:51:29.794Z,17.88
2022-12-13T07:53:57.640Z,16.92
2022-12-13T07:56:24.415Z,17.70
2022-12-13T07:58:51.327Z,17.95
2022-12-13T08:01:18.633Z,17.08
2022-12-13T08:03:48.359Z,18.13
2022-12-13T08:06:15.654Z,18.27
2022-12-13T08:08:42.579Z,17.60
2022-12-13T08:11:11.779Z,18.40
2022-12-13T08:13:41.022Z,17.80
2022-12-13T08:16:27.429Z,18.20
2022-12-13T08:19:03.119Z,17.25
2022-12-13T08:21:56.774Z,17.85
2022-12-13T08:24:26.563Z,16.20
2022-12-13T08:27:01.121Z,16.00
2022-12-13T08:29:35.322Z,17.40
2022-12-13T08:32:09.492Z,16.83
2022-12-13T08:34:36.668Z,16.60
2022-12-13T08:37:04.673Z,17.80
2022-12-13T08:39:39.478Z,16.73
2022-12-13T08:42:19.726Z,17.40
2022-12-13T08:44:49.191Z,16.88
2022-12-13T08:47:22.514Z,17.30
2022-12-13T08:49:51.005Z,16.90
2022-12-13T08:52:19.534Z,17.45
2022-12-13T08:54:46.323Z,15.75
2022-12-13T08:57:13.120Z,15.32
2022-12-13T08:59:39.882Z,16.52
2022-12-13T09:02:06.755Z,16.85
2022-12-13T09:04:33.755Z,15.25
2022-12-13T09:07:01.608Z,16.05
2022-12-13T09:09:29.794Z,16.75
2022-12-13T09:11:59.713Z,15.50
2022-12-13T09:14:33.971Z,16.00
2022-12-13T09:17:02.884Z,16.55
2022-12-13T09:19:36.797Z,16.90
2022-12-13T09:22:05.830Z,16.90
2022-12-13T09:24:41.548Z,16.95
2022-12-13T09:27:27.441Z,15.60
2022-12-13T09:29:54.964Z,16.42
2022-12-13T09:32:22.526Z,15.55
2022-12-13T09:34:49.551Z,16.15
2022-12-13T09:37:23.205Z,15.30
2022-12-13T09:39:55.027Z,15.82
2022-12-13T09:42:30.449Z,14.45
2022-12-13T09:45:22.006Z,14.60
2022-12-13T09:47:51.356Z,14.82
2022-12-13T09:50:26.507Z,15.10
2022-12-13T09:53:00.235Z,15.25
2022-12-13T09:55:44.055Z,14.10
2022-12-13T09:58:30.208Z,14.85
2022-12-13T10:00:58.626Z,13.68
2022-12-13T10:03:26.810Z,13.85
2022-12-13T10:06:02.103Z,14.45
2022-12-13T10:08:37.298Z,13.75
2022-12-13T10:11:04.552Z,13.60
2022-12-13T10:13:48.769Z,14.30
2022-12-13T10:16:38.213Z,13.18
2022-12-13T10:19:28.982Z,13.45
2022-12-13T10:22:01.212Z,13.13
2022-12-13T10:24:36.404Z,13.70
2022-12-13T10:27:17.081Z,13.00
2022-12-13T10:30:06.430Z,13.02
2022-12-13T10:32:47.951Z,13.38
2022-12-13T10:35:30.351Z,11.77
2022-12-13T10:38:02.713Z,12.07
2022-12-13T10:40:33.976Z,12.50
2022-12-13T10:43:18.579Z,12.18
2022-12-13T10:45:59.185Z,11.90
2022-12-13T10:48:28.726Z,12.52
2022-12-13T10:51:02.929Z,11.75
2022-12-13T10:53:33.644Z,12.60
2022-12-13T10:56:02.340Z,12.75
2022-12-13T10:58:42.254Z,12.55
2022-12-13T11:01:11.067Z,12.05
2022-12-13T11:03:38.251Z,12.15
2022-12-13T11:06:14.219Z,12.32
2022-12-13T11:08:41.761Z,12.20
2022-12-13T11:11:10.178Z,12.60
2022-12-13T11:13:55.719Z,13.02
2022-12-13T11:16:33.903Z,12.45
2022-12-13T11:19:05.470Z,12.15
2022-12-13T11:21:35.071Z,11.65
2022-12-13T11:24:05.557Z,10.32
2022-12-13T11:26:35.461Z,11.38
2022-12-13T11:29:36.226Z,11.43
2022-12-13T11:32:11.959Z,11.50
2022-12-13T11:35:06.422Z,11.48
2022-12-13T11:37:42.499Z,11.73
2022-12-13T11:40:20.422Z,10.80
2022-12-13T11:42:55.983Z,11.43
2022-12-13T11:45:29.617Z,10.30
2022-12-13T11:48:10.597Z,11.40
2022-12-13T11:50:41.268Z,10.77
2022-12-13T11:53:40.981Z,11.50
2022-12-13T11:56:26.790Z,11.48
2022-12-13T11:59:22.384Z,11.32
2022-12-13T12:02:17.817Z,10.90
2022-12-13T12:05:00.407Z,11.85
2022-12-13T12:07:35.964Z,11.50
2022-12-13T12:10:27.052Z,11.13
2022-12-13T12:13:04.688Z,11.02
2022-12-13T12:15:41.413Z,11.00
2022-12-13T12:18:15.714Z,11.30
2022-12-13T12:20:43.069Z,10.55
2022-12-13T12:23:28.145Z,10.30
2022-12-13T12:26:16.940Z,11.52
2022-12-13T12:29:21.534Z,11.30
2022-12-13T12:32:07.011Z,10.05
2022-12-13T12:34:39.924Z,9.85
2022-12-13T12:37:28.431Z,10.25
2022-12-13T12:40:15.279Z,10.85
2022-12-13T12:43:14.454Z,11.13
2022-12-13T12:46:02.964Z,10.18
2022-12-13T12:48:58.603Z,10.80
2022-12-13T12:51:49.604Z,11.18
2022-12-13T12:54:26.154Z,10.70
2022-12-13T12:57:17.157Z,10.60
2022-12-13T13:00:01.461Z,12.05
2022-12-13T13:03:01.529Z,10.65
2022-12-13T13:06:04.436Z,10.77
2022-12-13T13:08:55.508Z,10.35
2022-12-13T13:11:33.746Z,10.82
2022-12-13T13:14:28.372Z,11.23
2022-12-13T13:16:56.362Z,11.85
2022-12-13T13:19:32.277Z,11.52
2022-12-13T13:22:01.381Z,11.23
2022-12-13T13:24:31.370Z,10.68
2022-12-13T13:27:19.919Z,19.92
2022-12-13T13:29:46.871Z,10.93
2022-12-13T13:32:28.356Z,11.77
2022-12-13T13:35:34.132Z,10.90
2022-12-13T13:38:07.223Z,12.02
2022-12-13T13:40:36.711Z,10.65
2022-12-13T13:43:06.652Z,11.45
2022-12-13T13:45:58.711Z,12.65
2022-12-13T13:48:51.474Z,11.45
2022-12-13T13:52:16.829Z,11.05
2022-12-13T13:54:42.224Z,11.18
2022-12-13T13:57:45.618Z,11.57
2022-12-13T14:00:44.411Z,11.40
2022-12-13T14:03:46.120Z,11.38
2022-12-13T14:06:51.077Z,11.73
2022-12-13T14:09:53.357Z,11.75
2022-12-13T14:12:49.122Z,12.18
2022-12-13T14:15:28.747Z,11.82
2022-12-13T14:18:33.885Z,12.25
2022-12-13T14:21:03.953Z,11.50
2022-12-13T14:23:39.783Z,13.23
2022-12-13T14:26:29.983Z,11.35
2022-12-13T14:29:02.534Z,14.02
2022-12-13T14:31:47.796Z,12.27
2022-12-13T14:34:21.227Z,13.52
2022-12-13T14:37:05.033Z,12.18
2022-12-13T14:39:36.182Z,13.00
2022-12-13T14:42:23.370Z,11.77
2022-12-13T14:44:50.615Z,13.43
2022-12-13T14:47:18.888Z,12.50
2022-12-13T14:49:55.126Z,12.93
2022-12-13T14:52:31.573Z,13.57
2022-12-13T14:55:01.008Z,13.75
2022-12-13T14:57:30.336Z,13.23
2022-12-13T14:59:58.922Z,14.02
2022-12-13T15:02:32.311Z,13.80
2022-12-13T15:05:05.441Z,13.70
2022-12-13T15:07:41.356Z,12.63
2022-12-13T15:10:22.704Z,13.70
2022-12-13T15:12:52.259Z,13.93
2022-12-13T15:15:32.227Z,14.57
2022-12-13T15:18:08.102Z,13.98
2022-12-13T15:20:41.949Z,13.88
2022-12-13T15:23:21.485Z,12.50
2022-12-13T15:26:01.886Z,14.18
2022-12-13T15:28:32.821Z,14.73
2022-12-13T15:31:01.922Z,14.38
2022-12-13T15:33:35.157Z,14.18
2022-12-13T15:36:15.582Z,13.88
2022-12-13T15:38:57.431Z,14.48
2022-12-13T15:41:29.666Z,13.55
2022-12-13T15:44:00.509Z,13.88
2022-12-13T15:46:30.754Z,14.68
2022-12-13T15:49:02.743Z,13.90
2022-12-13T15:51:30.875Z,15.27
2022-12-13T15:54:05.038Z,14.50
2022-12-13T15:56:41.689Z,14.48
2022-12-13T15:59:27.956Z,14.38
2022-12-13T16:01:58.480Z,13.80
2022-12-13T16:04:32.735Z,14.27
2022-12-13T16:07:00.681Z,15.13
2022-12-13T16:09:35.579Z,15.77
2022-12-13T16:12:06.796Z,15.73
2022-12-13T16:14:48.940Z,15.38
2022-12-13T16:17:29.510Z,15.48
2022-12-13T16:20:02.105Z,14.93
2022-12-13T16:22:32.931Z,15.57
2022-12-13T16:25:02.526Z,14.02
2022-12-13T16:27:29.393Z,14.43
2022-12-13T16:29:56.766Z,14.40
2022-12-13T16:32:23.946Z,14.68
2022-12-13T16:34:50.744Z,14.60
2022-12-13T16:37:25.527Z,15.85
2022-12-13T16:39:54.056Z,15.93
2022-12-13T16:42:21.085Z,13.75
2022-12-13T16:45:01.615Z,14.77
2022-12-13T16:47:46.365Z,14.75
2022-12-13T16:50:18.660Z,14.63
2022-12-13T16:52:46.504Z,14.38
2022-12-13T16:55:13.730Z,15.40
2022-12-13T16:57:40.628Z,21.00
2022-12-13T17:00:10.999Z,17.48
2022-12-13T17:02:38.145Z,20.38
2022-12-13T17:05:05.857Z,19.02
2022-12-13T17:07:35.420Z,18.67
2022-12-13T17:10:02.956Z,22.58
2022-12-13T17:12:29.822Z,18.15
2022-12-13T17:14:56.652Z,18.48
2022-12-13T17:17:23.515Z,17.65
2022-12-13T17:19:50.343Z,18.63
2022-12-13T17:22:17.211Z,19.70
2022-12-13T17:24:44.023Z,18.38
2022-12-13T17:27:11.154Z,18.42
2022-12-13T17:29:38.035Z,18.20
2022-12-13T17:32:05.688Z,18.85
2022-12-13T17:34:32.825Z,19.80
2022-12-13T17:36:59.722Z,19.92
2022-12-13T17:39:26.624Z,21.13
2022-12-13T17:41:55.140Z,21.02
2022-12-13T17:44:24.104Z,18.60
2022-12-13T17:46:54.734Z,20.58
2022-12-13T17:49:22.750Z,18.70
2022-12-13T17:51:52.690Z,19.83
2022-12-13T17:54:21.881Z,18.55
2022-12-13T17:56:49.621Z,20.13
2022-12-13T17:59:17.430Z,18.55
2022-12-13T18:01:45.175Z,16.38
2022-12-13T18:04:12.713Z,18.15
2022-12-13T18:06:40.481Z,18.75
2022-12-13T18:09:08.578Z,17.23
2022-12-13T18:11:35.948Z,17.10
2022-12-13T18:14:08.411Z,16.63
2022-12-13T18:16:38.506Z,14.88
2022-12-13T18:19:12.518Z,16.00
2022-12-13T18:21:40.039Z,16.48
2022-12-13T18:24:07.663Z,15.88
2022-12-13T18:26:34.972Z,14.85
2022-12-13T18:29:03.243Z,14.38
2022-12-13T18:31:30.732Z,15.85
2022-12-13T18:33:57.980Z,15.45
2022-12-13T18:36:25.983Z,14.43
2022-12-13T18:38:53.191Z,15.55
2022-12-13T18:41:22.805Z,15.38
2022-12-13T18:43:59.431Z,15.82
2022-12-13T18:46:27.970Z,15.82
2022-12-13T18:48:55.143Z,18.38
2022-12-13T18:51:22.047Z,18.58
2022-12-13T18:53:49.031Z,16.90
2022-12-13T18:56:19.052Z,14.25
2022-12-13T18:58:50.648Z,15.98
2022-12-13T19:01:22.783Z,14.48
2022-12-13T19:03:51.016Z,16.73
2022-12-13T19:06:21.056Z,14.68
2022-12-13T19:08:49.541Z,16.02
2022-12-13T19:11:18.000Z,15.32
2022-12-13T19:13:44.846Z,19.13
2022-12-13T19:16:18.320Z,19.55
2022-12-13T19:18:45.466Z,16.23
2022-12-13T19:21:15.709Z,15.93
2022-12-13T19:23:43.388Z,16.23
2022-12-13T19:26:13.204Z,16.38
2022-12-13T19:28:41.528Z,16.90
2022-12-13T19:31:10.952Z,16.98
2022-12-13T19:33:38.085Z,16.75
2022-12-13T19:36:06.077Z,17.95
2022-12-13T19:38:33.506Z,16.27
2022-12-13T19:41:00.771Z,17.70
2022-12-13T19:43:28.508Z,16.67
2022-12-13T19:45:55.952Z,17.08
2022-12-13T19:48:24.805Z,16.77
2022-12-13T19:50:51.925Z,17.52
2022-12-13T19:53:19.171Z,17.55
2022-12-13T19:55:48.193Z,17.25
2022-12-13T19:58:15.335Z,17.88
2022-12-13T20:00:42.268Z,17.75
2022-12-13T20:03:09.205Z,17.40
2022-12-13T20:05:36.469Z,17.45
2022-12-13T20:08:03.400Z,17.08
2022-12-13T20:10:34.158Z,18.58
2022-12-13T20:13:01.009Z,17.52
2022-12-13T20:15:28.276Z,17.48
2022-12-13T20:17:56.587Z,16.15
2022-12-13T20:20:31.498Z,19.50
2022-12-13T20:23:03.227Z,18.25
2022-12-13T20:25:30.029Z,18.73
2022-12-13T20:27:57.082Z,19.38
2022-12-13T20:30:26.439Z,19.05
2022-12-13T20:32:54.894Z,20.63
2022-12-13T20:35:21.644Z,19.75
2022-12-13T20:37:49.011Z,20.42
2022-12-13T20:40:15.903Z,20.15
2022-12-13T20:42:42.883Z,20.13
2022-12-13T20:45:10.709Z,20.60
2022-12-13T20:47:38.381Z,20.40
2022-12-13T20:50:05.853Z,21.73
2022-12-13T20:52:32.666Z,22.73
2022-12-13T20:54:59.715Z,22.23
2022-12-13T20:57:26.688Z,23.23
2022-12-13T20:59:53.619Z,22.77
2022-12-13T21:02:20.652Z,22.35
2022-12-13T21:04:47.679Z,21.55
2022-12-13T21:07:34.503Z,21.55
2022-12-13T21:10:01.588Z,20.83
2022-12-13T21:12:28.529Z,19.70
2022-12-13T21:14:55.389Z,20.92
2022-12-13T21:17:22.180Z,21.58
2022-12-13T21:19:49.182Z,20.88
2022-12-13T21:22:16.202Z,22.08
2022-12-13T21:24:42.985Z,21.88
2022-12-13T21:27:09.893Z,21.50
2022-12-13T21:29:36.729Z,22.25
2022-12-13T21:32:03.703Z,22.98
2022-12-13T21:34:31.190Z,23.25
2022-12-13T21:36:58.496Z,24.50
2022-12-13T21:39:29.589Z,23.90
2022-12-13T21:41:57.587Z,24.63
2022-12-13T21:44:24.439Z,25.63
2022-12-13T21:49:38.983Z,26.30
2022-12-13T21:52:06.148Z,25.60
2022-12-13T21:54:33.300Z,26.98
2022-12-13T21:57:19.398Z,26.80
2022-12-13T21:59:46.515Z,28.48
2022-12-13T22:02:18.817Z,29.45
2022-12-13T22:04:51.857Z,28.13
2022-12-13T22:07:28.791Z,28.23
2022-12-13T22:09:56.792Z,27.73
2022-12-13T22:12:25.224Z,28.63
2022-12-13T22:14:53.896Z,28.85
2022-12-13T22:17:27.000Z,27.88
2022-12-13T22:19:59.123Z,29.13
2022-12-13T22:22:26.555Z,28.20
2022-12-13T22:24:54.164Z,29.05
2022-12-13T22:27:25.578Z,30.45
2022-12-13T22:29:56.059Z,29.55
2022-12-13T22:32:24.159Z,30.40
2022-12-13T22:34:51.959Z,30.40
2022-12-13T22:37:18.960Z,32.15
2022-12-13T22:39:45.848Z,29.27
2022-12-13T22:42:12.669Z,30.25
2022-12-13T22:44:39.462Z,29.27
2022-12-13T22:47:06.717Z,30.67
2022-12-13T22:49:33.727Z,31.40
2022-12-13T22:52:00.706Z,30.15
2022-12-13T22:54:27.621Z,30.25
2022-12-13T22:56:54.600Z,31.63
2022-12-13T22:59:21.812Z,30.70
2022-12-13T23:01:50.551Z,32.17
2022-12-13T23:04:17.497Z,30.92
2022-12-13T23:06:44.647Z,32.50
2022-12-13T23:09:13.473Z,33.80
2022-12-13T23:11:58.964Z,32.88
2022-12-13T23:14:32.208Z,32.67
2022-12-13T23:16:59.838Z,31.05
2022-12-13T23:19:50.010Z,30.33
2022-12-13T23:22:14.589Z,30.48
2022-12-13T23:24:41.661Z,29.45
2022-12-13T23:27:08.945Z,29.40
2022-12-13T23:29:35.848Z,30.08
2022-12-13T23:32:02.885Z,31.05
2022-12-13T23:34:30.509Z,32.00
2022-12-13T23:36:57.282Z,29.85
2022-12-13T23:39:24.235Z,30.30
2022-12-13T23:41:51.055Z,30.40
2022-12-13T23:44:18.010Z,30.60
2022-12-13T23:46:48.837Z,31.88
2022-12-13T23:49:16.693Z,30.35
2022-12-13T23:51:44.582Z,32.00
2022-12-13T23:54:17.816Z,32.13
2022-12-13T23:56:45.336Z,30.88
2022-12-13T23:59:12.334Z,32.35
